Croata, Brazil
Current Conditions -  °F | °C
As of 3:00 PM on Monday 24 Nov 2014 (Local Time) from SBPB Reporting Station
Few Clouds Few Clouds  
Wind Chill: 91°   Ceiling: Unl
Heat Index: 102°   Visibility: 6mi
Dew Point: 75°   Wind: 22mph
Humidity: 59%   Direction: 70°ENE
Pressure: 29.8"   Gusts: NA
Location:  4.4°S, 40.91°W
Report Text: SBPB 241800Z 07019KT 9999 FEW020 33/24 Q1009
Loading
Personal Weather Stations






























Interactive Weather Map New forecast layout! Learn more

10-Day Weather Forecast

Advertisements
Track Severe Weather on mobile